sensor_id;sensor_type;location;lat;lon;timestamp;temperature;humidity
46364;DHT22;32071;49.036;9.344;2024-02-23T00:01:05;7.10;99.90
46364;DHT22;32071;49.036;9.344;2024-02-23T00:03:31;7.10;99.90
46364;DHT22;32071;49.036;9.344;2024-02-23T00:05:58;7.10;99.90
46364;DHT22;32071;49.036;9.344;2024-02-23T00:08:24;7.10;99.90
46364;DHT22;32071;49.036;9.344;2024-02-23T00:10:49;7.10;99.90
46364;DHT22;32071;49.036;9.344;2024-02-23T00:13:15;7.00;99.90
46364;DHT22;32071;49.036;9.344;2024-02-23T00:15:41;7.00;99.90
46364;DHT22;32071;49.036;9.344;2024-02-23T00:18:06;7.00;99.90
46364;DHT22;32071;49.036;9.344;2024-02-23T00:20:33;7.00;99.90
46364;DHT22;32071;49.036;9.344;2024-02-23T00:22:59;7.00;99.90
46364;DHT22;32071;49.036;9.344;2024-02-23T00:25:24;7.00;99.90
46364;DHT22;32071;49.036;9.344;2024-02-23T00:27:50;7.00;99.90
46364;DHT22;32071;49.036;9.344;2024-02-23T00:30:16;7.00;99.90
46364;DHT22;32071;49.036;9.344;2024-02-23T00:32:41;7.00;99.90
46364;DHT22;32071;49.036;9.344;2024-02-23T00:35:07;6.90;99.90
46364;DHT22;32071;49.036;9.344;2024-02-23T00:37:32;6.90;99.90
46364;DHT22;32071;49.036;9.344;2024-02-23T00:40:05;6.90;99.90
46364;DHT22;32071;49.036;9.344;2024-02-23T00:42:31;6.90;99.90
46364;DHT22;32071;49.036;9.344;2024-02-23T00:44:56;6.90;99.90
46364;DHT22;32071;49.036;9.344;2024-02-23T00:47:22;6.90;99.90
46364;DHT22;32071;49.036;9.344;2024-02-23T00:49:47;6.90;99.90
46364;DHT22;32071;49.036;9.344;2024-02-23T00:52:14;6.80;99.90
46364;DHT22;32071;49.036;9.344;2024-02-23T00:54:41;6.80;99.90
46364;DHT22;32071;49.036;9.344;2024-02-23T00:57:06;6.80;99.90
46364;DHT22;32071;49.036;9.344;2024-02-23T00:59:32;6.70;99.90
46364;DHT22;32071;49.036;9.344;2024-02-23T01:01:58;6.70;99.90
46364;DHT22;32071;49.036;9.344;2024-02-23T01:04:23;6.70;99.90
46364;DHT22;32071;49.036;9.344;2024-02-23T01:06:49;6.70;99.90
46364;DHT22;32071;49.036;9.344;2024-02-23T01:09:14;6.70;99.90
46364;DHT22;32071;49.036;9.344;2024-02-23T01:11:42;6.70;99.90
46364;DHT22;32071;49.036;9.344;2024-02-23T01:14:07;6.70;99.90
46364;DHT22;32071;49.036;9.344;2024-02-23T01:16:33;6.70;99.90
46364;DHT22;32071;49.036;9.344;2024-02-23T01:18:59;6.70;99.90
46364;DHT22;32071;49.036;9.344;2024-02-23T01:21:24;6.70;99.90
46364;DHT22;32071;49.036;9.344;2024-02-23T01:23:50;6.70;99.90
46364;DHT22;32071;49.036;9.344;2024-02-23T01:26:15;6.70;99.90
46364;DHT22;32071;49.036;9.344;2024-02-23T01:28:41;6.70;99.90
46364;DHT22;32071;49.036;9.344;2024-02-23T01:31:11;6.70;99.90
46364;DHT22;32071;49.036;9.344;2024-02-23T01:33:37;6.70;99.90
46364;DHT22;32071;49.036;9.344;2024-02-23T01:36:07;6.70;99.90
46364;DHT22;32071;49.036;9.344;2024-02-23T01:38:33;6.70;99.90
46364;DHT22;32071;49.036;9.344;2024-02-23T01:40:59;6.70;99.90
46364;DHT22;32071;49.036;9.344;2024-02-23T01:43:25;6.60;99.90
46364;DHT22;32071;49.036;9.344;2024-02-23T01:45:51;6.60;99.90
46364;DHT22;32071;49.036;9.344;2024-02-23T01:48:17;6.60;99.90
46364;DHT22;32071;49.036;9.344;2024-02-23T01:50:43;6.60;99.90
46364;DHT22;32071;49.036;9.344;2024-02-23T01:53:10;6.50;99.90
46364;DHT22;32071;49.036;9.344;2024-02-23T01:55:37;6.50;99.90
46364;DHT22;32071;49.036;9.344;2024-02-23T01:58:04;6.50;99.90
46364;DHT22;32071;49.036;9.344;2024-02-23T02:00:30;6.50;99.90
46364;DHT22;32071;49.036;9.344;2024-02-23T02:02:56;6.50;99.90
46364;DHT22;32071;49.036;9.344;2024-02-23T02:05:22;6.50;99.90
46364;DHT22;32071;49.036;9.344;2024-02-23T02:07:49;6.50;99.90
46364;DHT22;32071;49.036;9.344;2024-02-23T02:10:20;6.50;99.90
46364;DHT22;32071;49.036;9.344;2024-02-23T02:12:46;6.60;99.90
46364;DHT22;32071;49.036;9.344;2024-02-23T02:15:12;6.60;99.90
46364;DHT22;32071;49.036;9.344;2024-02-23T02:17:38;6.60;99.90
46364;DHT22;32071;49.036;9.344;2024-02-23T02:20:04;6.60;99.90
46364;DHT22;32071;49.036;9.344;2024-02-23T02:22:34;6.70;99.90
46364;DHT22;32071;49.036;9.344;2024-02-23T02:25:00;6.70;99.90
46364;DHT22;32071;49.036;9.344;2024-02-23T02:27:26;6.70;99.90
46364;DHT22;32071;49.036;9.344;2024-02-23T02:29:52;6.70;99.90
46364;DHT22;32071;49.036;9.344;2024-02-23T02:32:17;6.70;99.90
46364;DHT22;32071;49.036;9.344;2024-02-23T02:34:43;6.70;99.90
46364;DHT22;32071;49.036;9.344;2024-02-23T02:37:09;6.60;99.90
46364;DHT22;32071;49.036;9.344;2024-02-23T02:39:34;6.60;99.90
46364;DHT22;32071;49.036;9.344;2024-02-23T02:42:00;6.60;99.90
46364;DHT22;32071;49.036;9.344;2024-02-23T02:44:25;6.50;99.90
46364;DHT22;32071;49.036;9.344;2024-02-23T02:46:56;6.50;99.90
46364;DHT22;32071;49.036;9.344;2024-02-23T02:49:23;6.50;99.90
46364;DHT22;32071;49.036;9.344;2024-02-23T02:51:48;6.40;99.90
46364;DHT22;32071;49.036;9.344;2024-02-23T02:54:14;6.40;99.90
46364;DHT22;32071;49.036;9.344;2024-02-23T02:56:43;6.40;99.90
46364;DHT22;32071;49.036;9.344;2024-02-23T02:59:09;6.30;99.90
46364;DHT22;32071;49.036;9.344;2024-02-23T03:01:35;6.30;99.90
46364;DHT22;32071;49.036;9.344;2024-02-23T03:04:01;6.30;99.90
46364;DHT22;32071;49.036;9.344;2024-02-23T03:06:26;6.20;99.90
46364;DHT22;32071;49.036;9.344;2024-02-23T03:08:52;6.20;99.90
46364;DHT22;32071;49.036;9.344;2024-02-23T03:11:17;6.20;99.90
46364;DHT22;32071;49.036;9.344;2024-02-23T03:13:43;6.20;99.90
46364;DHT22;32071;49.036;9.344;2024-02-23T03:16:18;6.20;99.90
46364;DHT22;32071;49.036;9.344;2024-02-23T03:18:44;6.20;99.90
46364;DHT22;32071;49.036;9.344;2024-02-23T03:21:10;6.20;99.90
46364;DHT22;32071;49.036;9.344;2024-02-23T03:23:36;6.30;99.90
46364;DHT22;32071;49.036;9.344;2024-02-23T03:26:02;6.30;99.90
46364;DHT22;32071;49.036;9.344;2024-02-23T03:28:28;6.30;99.90
46364;DHT22;32071;49.036;9.344;2024-02-23T03:30:53;6.30;99.90
46364;DHT22;32071;49.036;9.344;2024-02-23T03:33:19;6.30;99.90
46364;DHT22;32071;49.036;9.344;2024-02-23T03:35:44;6.30;99.90
46364;DHT22;32071;49.036;9.344;2024-02-23T03:38:10;6.30;99.90
46364;DHT22;32071;49.036;9.344;2024-02-23T03:40:36;6.30;99.90
46364;DHT22;32071;49.036;9.344;2024-02-23T03:43:02;6.30;99.90
46364;DHT22;32071;49.036;9.344;2024-02-23T03:45:28;6.30;99.90
46364;DHT22;32071;49.036;9.344;2024-02-23T03:47:53;6.30;99.90
46364;DHT22;32071;49.036;9.344;2024-02-23T03:50:19;6.30;99.90
46364;DHT22;32071;49.036;9.344;2024-02-23T03:52:44;6.30;99.90
46364;DHT22;32071;49.036;9.344;2024-02-23T03:55:10;6.40;99.90
46364;DHT22;32071;49.036;9.344;2024-02-23T03:57:36;6.30;99.90
46364;DHT22;32071;49.036;9.344;2024-02-23T04:00:02;6.30;99.90
46364;DHT22;32071;49.036;9.344;2024-02-23T04:02:28;6.30;99.90
46364;DHT22;32071;49.036;9.344;2024-02-23T04:04:54;6.30;99.90
46364;DHT22;32071;49.036;9.344;2024-02-23T04:07:20;6.30;99.90
46364;DHT22;32071;49.036;9.344;2024-02-23T04:09:46;6.30;99.90
46364;DHT22;32071;49.036;9.344;2024-02-23T04:12:23;6.30;99.90
46364;DHT22;32071;49.036;9.344;2024-02-23T04:14:48;6.30;99.90
46364;DHT22;32071;49.036;9.344;2024-02-23T04:17:14;6.30;99.90
46364;DHT22;32071;49.036;9.344;2024-02-23T04:19:40;6.30;99.90
46364;DHT22;32071;49.036;9.344;2024-02-23T04:22:07;6.30;99.90
46364;DHT22;32071;49.036;9.344;2024-02-23T04:24:40;6.30;99.90
46364;DHT22;32071;49.036;9.344;2024-02-23T04:27:06;6.30;99.90
46364;DHT22;32071;49.036;9.344;2024-02-23T04:29:32;6.30;99.90
46364;DHT22;32071;49.036;9.344;2024-02-23T04:31:59;6.20;99.90
46364;DHT22;32071;49.036;9.344;2024-02-23T04:34:25;6.20;99.90
46364;DHT22;32071;49.036;9.344;2024-02-23T04:36:51;6.20;99.90
46364;DHT22;32071;49.036;9.344;2024-02-23T04:39:16;6.20;99.90
46364;DHT22;32071;49.036;9.344;2024-02-23T04:41:42;6.20;99.90
46364;DHT22;32071;49.036;9.344;2024-02-23T04:44:07;6.20;99.90
46364;DHT22;32071;49.036;9.344;2024-02-23T04:46:33;6.20;99.90
46364;DHT22;32071;49.036;9.344;2024-02-23T04:48:59;6.20;99.90
46364;DHT22;32071;49.036;9.344;2024-02-23T04:51:25;6.20;99.90
46364;DHT22;32071;49.036;9.344;2024-02-23T04:53:50;6.20;99.90
46364;DHT22;32071;49.036;9.344;2024-02-23T04:56:16;6.20;99.90
46364;DHT22;32071;49.036;9.344;2024-02-23T04:58:42;6.20;99.90
46364;DHT22;32071;49.036;9.344;2024-02-23T05:01:08;6.20;99.90
46364;DHT22;32071;49.036;9.344;2024-02-23T05:03:34;6.10;99.90
46364;DHT22;32071;49.036;9.344;2024-02-23T05:05:59;6.10;99.90
46364;DHT22;32071;49.036;9.344;2024-02-23T05:08:25;6.10;99.90
46364;DHT22;32071;49.036;9.344;2024-02-23T05:10:53;6.10;99.90
46364;DHT22;32071;49.036;9.344;2024-02-23T05:13:18;6.20;99.90
46364;DHT22;32071;49.036;9.344;2024-02-23T05:15:44;6.20;99.90
46364;DHT22;32071;49.036;9.344;2024-02-23T05:18:10;6.20;99.90
46364;DHT22;32071;49.036;9.344;2024-02-23T05:20:35;6.20;99.90
46364;DHT22;32071;49.036;9.344;2024-02-23T05:23:01;6.20;99.90
46364;DHT22;32071;49.036;9.344;2024-02-23T05:25:26;6.20;99.90
46364;DHT22;32071;49.036;9.344;2024-02-23T05:27:52;6.20;99.90
46364;DHT22;32071;49.036;9.344;2024-02-23T05:30:18;6.10;99.90
46364;DHT22;32071;49.036;9.344;2024-02-23T05:32:43;6.20;99.90
46364;DHT22;32071;49.036;9.344;2024-02-23T05:35:09;6.10;99.90
46364;DHT22;32071;49.036;9.344;2024-02-23T05:37:35;6.10;99.90
46364;DHT22;32071;49.036;9.344;2024-02-23T05:40:03;6.10;99.90
46364;DHT22;32071;49.036;9.344;2024-02-23T05:42:32;6.00;99.90
46364;DHT22;32071;49.036;9.344;2024-02-23T05:44:58;6.10;99.90
46364;DHT22;32071;49.036;9.344;2024-02-23T05:47:23;6.10;99.90
46364;DHT22;32071;49.036;9.344;2024-02-23T05:49:50;6.00;99.90
46364;DHT22;32071;49.036;9.344;2024-02-23T05:52:16;6.00;99.90
46364;DHT22;32071;49.036;9.344;2024-02-23T05:54:41;6.00;99.90
46364;DHT22;32071;49.036;9.344;2024-02-23T05:57:07;6.10;99.90
46364;DHT22;32071;49.036;9.344;2024-02-23T05:59:32;6.00;99.90
46364;DHT22;32071;49.036;9.344;2024-02-23T06:01:58;6.10;99.90
46364;DHT22;32071;49.036;9.344;2024-02-23T06:04:24;6.10;99.90
46364;DHT22;32071;49.036;9.344;2024-02-23T06:06:50;6.10;99.90
46364;DHT22;32071;49.036;9.344;2024-02-23T06:09:15;6.10;99.90
46364;DHT22;32071;49.036;9.344;2024-02-23T06:11:41;6.10;99.90
46364;DHT22;32071;49.036;9.344;2024-02-23T06:14:07;6.10;99.90
46364;DHT22;32071;49.036;9.344;2024-02-23T06:16:33;6.10;99.90
46364;DHT22;32071;49.036;9.344;2024-02-23T06:18:59;6.10;99.90
46364;DHT22;32071;49.036;9.344;2024-02-23T06:21:25;6.00;99.90
46364;DHT22;32071;49.036;9.344;2024-02-23T06:23:50;6.10;99.90
46364;DHT22;32071;49.036;9.344;2024-02-23T06:26:16;6.10;99.90
46364;DHT22;32071;49.036;9.344;2024-02-23T06:28:42;6.10;99.90
46364;DHT22;32071;49.036;9.344;2024-02-23T06:31:08;6.00;99.90
46364;DHT22;32071;49.036;9.344;2024-02-23T06:33:34;6.00;99.90
46364;DHT22;32071;49.036;9.344;2024-02-23T06:36:00;6.00;99.90
46364;DHT22;32071;49.036;9.344;2024-02-23T06:38:26;6.00;99.90
46364;DHT22;32071;49.036;9.344;2024-02-23T06:40:52;6.00;99.90
46364;DHT22;32071;49.036;9.344;2024-02-23T06:43:18;6.00;99.90
46364;DHT22;32071;49.036;9.344;2024-02-23T06:45:44;6.00;99.90
46364;DHT22;32071;49.036;9.344;2024-02-23T06:48:09;6.00;99.90
46364;DHT22;32071;49.036;9.344;2024-02-23T06:50:35;6.00;99.90
46364;DHT22;32071;49.036;9.344;2024-02-23T06:53:01;6.00;99.90
46364;DHT22;32071;49.036;9.344;2024-02-23T06:55:27;6.10;99.90
46364;DHT22;32071;49.036;9.344;2024-02-23T06:57:54;6.10;99.90
46364;DHT22;32071;49.036;9.344;2024-02-23T07:00:20;6.20;99.90
46364;DHT22;32071;49.036;9.344;2024-02-23T07:02:47;6.20;99.90
46364;DHT22;32071;49.036;9.344;2024-02-23T07:05:12;6.20;99.90
46364;DHT22;32071;49.036;9.344;2024-02-23T07:07:39;6.30;99.90
46364;DHT22;32071;49.036;9.344;2024-02-23T07:10:06;6.30;99.90
46364;DHT22;32071;49.036;9.344;2024-02-23T07:12:32;6.30;99.90
46364;DHT22;32071;49.036;9.344;2024-02-23T07:14:57;6.30;99.90
46364;DHT22;32071;49.036;9.344;2024-02-23T07:17:23;6.20;99.90
46364;DHT22;32071;49.036;9.344;2024-02-23T07:19:49;6.10;99.90
46364;DHT22;32071;49.036;9.344;2024-02-23T07:22:16;6.10;99.90
46364;DHT22;32071;49.036;9.344;2024-02-23T07:24:43;6.00;99.90
46364;DHT22;32071;49.036;9.344;2024-02-23T07:27:09;6.00;99.90
46364;DHT22;32071;49.036;9.344;2024-02-23T07:29:34;6.00;99.90
46364;DHT22;32071;49.036;9.344;2024-02-23T07:32:00;6.10;99.90
46364;DHT22;32071;49.036;9.344;2024-02-23T07:34:26;6.00;99.90
46364;DHT22;32071;49.036;9.344;2024-02-23T07:36:52;6.00;99.90
46364;DHT22;32071;49.036;9.344;2024-02-23T07:39:18;6.10;99.90
46364;DHT22;32071;49.036;9.344;2024-02-23T07:41:44;6.00;99.90
46364;DHT22;32071;49.036;9.344;2024-02-23T07:44:09;6.00;99.90
46364;DHT22;32071;49.036;9.344;2024-02-23T07:46:35;6.10;99.90
46364;DHT22;32071;49.036;9.344;2024-02-23T07:49:00;6.10;99.90
46364;DHT22;32071;49.036;9.344;2024-02-23T07:51:26;6.10;99.90
46364;DHT22;32071;49.036;9.344;2024-02-23T07:53:51;6.20;99.90
46364;DHT22;32071;49.036;9.344;2024-02-23T07:56:17;6.20;99.90
46364;DHT22;32071;49.036;9.344;2024-02-23T07:58:42;6.20;99.90
46364;DHT22;32071;49.036;9.344;2024-02-23T08:01:08;6.20;99.90
46364;DHT22;32071;49.036;9.344;2024-02-23T08:03:34;6.30;99.90
46364;DHT22;32071;49.036;9.344;2024-02-23T08:05:59;6.30;99.90
46364;DHT22;32071;49.036;9.344;2024-02-23T08:08:26;6.30;99.90
46364;DHT22;32071;49.036;9.344;2024-02-23T08:10:53;6.30;99.90
46364;DHT22;32071;49.036;9.344;2024-02-23T08:13:19;6.30;99.90
46364;DHT22;32071;49.036;9.344;2024-02-23T08:15:44;6.20;99.90
46364;DHT22;32071;49.036;9.344;2024-02-23T08:18:10;6.10;99.90
46364;DHT22;32071;49.036;9.344;2024-02-23T08:20:36;6.00;99.90
46364;DHT22;32071;49.036;9.344;2024-02-23T08:23:01;6.00;99.90
46364;DHT22;32071;49.036;9.344;2024-02-23T08:25:27;6.00;99.90
46364;DHT22;32071;49.036;9.344;2024-02-23T08:27:56;6.00;99.90
46364;DHT22;32071;49.036;9.344;2024-02-23T08:30:22;6.00;99.90
46364;DHT22;32071;49.036;9.344;2024-02-23T08:32:48;6.00;99.90
46364;DHT22;32071;49.036;9.344;2024-02-23T08:35:13;6.00;99.90
46364;DHT22;32071;49.036;9.344;2024-02-23T08:37:40;6.00;99.90
46364;DHT22;32071;49.036;9.344;2024-02-23T08:40:08;6.00;99.90
46364;DHT22;32071;49.036;9.344;2024-02-23T08:42:33;6.10;99.90
46364;DHT22;32071;49.036;9.344;2024-02-23T08:44:59;6.20;99.90
46364;DHT22;32071;49.036;9.344;2024-02-23T08:47:25;6.20;99.90
46364;DHT22;32071;49.036;9.344;2024-02-23T08:49:53;6.20;99.90
46364;DHT22;32071;49.036;9.344;2024-02-23T08:52:19;6.20;99.90
46364;DHT22;32071;49.036;9.344;2024-02-23T08:54:44;6.20;99.90
46364;DHT22;32071;49.036;9.344;2024-02-23T08:57:10;6.20;99.90
46364;DHT22;32071;49.036;9.344;2024-02-23T08:59:35;6.20;99.90
46364;DHT22;32071;49.036;9.344;2024-02-23T09:02:01;6.10;99.90
46364;DHT22;32071;49.036;9.344;2024-02-23T09:04:27;6.10;99.90
46364;DHT22;32071;49.036;9.344;2024-02-23T09:06:53;6.10;99.90
46364;DHT22;32071;49.036;9.344;2024-02-23T09:09:19;6.30;99.90
46364;DHT22;32071;49.036;9.344;2024-02-23T09:11:45;6.40;99.90
46364;DHT22;32071;49.036;9.344;2024-02-23T09:14:10;6.60;99.90
46364;DHT22;32071;49.036;9.344;2024-02-23T09:16:36;6.60;99.90
46364;DHT22;32071;49.036;9.344;2024-02-23T09:19:01;6.60;99.90
46364;DHT22;32071;49.036;9.344;2024-02-23T09:21:27;6.70;99.90
46364;DHT22;32071;49.036;9.344;2024-02-23T09:23:52;6.60;99.90
46364;DHT22;32071;49.036;9.344;2024-02-23T09:26:18;6.60;99.90
46364;DHT22;32071;49.036;9.344;2024-02-23T09:28:43;6.70;99.90
46364;DHT22;32071;49.036;9.344;2024-02-23T09:31:10;6.70;99.90
46364;DHT22;32071;49.036;9.344;2024-02-23T09:33:36;6.70;99.90
46364;DHT22;32071;49.036;9.344;2024-02-23T09:36:02;6.70;99.90
46364;DHT22;32071;49.036;9.344;2024-02-23T09:38:28;6.70;99.90
46364;DHT22;32071;49.036;9.344;2024-02-23T09:40:53;6.80;99.90
46364;DHT22;32071;49.036;9.344;2024-02-23T09:43:21;6.90;99.90
46364;DHT22;32071;49.036;9.344;2024-02-23T09:45:51;6.90;99.90
46364;DHT22;32071;49.036;9.344;2024-02-23T09:48:18;6.90;99.90
46364;DHT22;32071;49.036;9.344;2024-02-23T09:50:45;7.00;99.90
46364;DHT22;32071;49.036;9.344;2024-02-23T09:53:13;7.00;99.90
46364;DHT22;32071;49.036;9.344;2024-02-23T09:55:38;6.90;99.90
46364;DHT22;32071;49.036;9.344;2024-02-23T09:58:04;6.80;99.90
46364;DHT22;32071;49.036;9.344;2024-02-23T10:00:33;6.80;99.90
46364;DHT22;32071;49.036;9.344;2024-02-23T10:03:00;6.80;99.90
46364;DHT22;32071;49.036;9.344;2024-02-23T10:05:30;6.80;99.90
46364;DHT22;32071;49.036;9.344;2024-02-23T10:07:56;6.80;99.90
46364;DHT22;32071;49.036;9.344;2024-02-23T10:10:33;7.00;99.90
46364;DHT22;32071;49.036;9.344;2024-02-23T10:12:59;7.20;99.90
46364;DHT22;32071;49.036;9.344;2024-02-23T10:15:25;7.40;99.90
46364;DHT22;32071;49.036;9.344;2024-02-23T10:17:51;7.40;99.90
46364;DHT22;32071;49.036;9.344;2024-02-23T10:20:17;7.50;99.90
46364;DHT22;32071;49.036;9.344;2024-02-23T10:22:43;7.60;99.90
46364;DHT22;32071;49.036;9.344;2024-02-23T10:25:09;7.70;99.90
46364;DHT22;32071;49.036;9.344;2024-02-23T10:27:34;7.80;99.90
46364;DHT22;32071;49.036;9.344;2024-02-23T10:30:00;7.90;99.90
46364;DHT22;32071;49.036;9.344;2024-02-23T10:32:29;7.80;99.90
46364;DHT22;32071;49.036;9.344;2024-02-23T10:35:00;7.80;99.90
46364;DHT22;32071;49.036;9.344;2024-02-23T10:37:26;7.70;99.90
46364;DHT22;32071;49.036;9.344;2024-02-23T10:39:57;7.80;99.90
46364;DHT22;32071;49.036;9.344;2024-02-23T10:42:24;8.00;99.90
46364;DHT22;32071;49.036;9.344;2024-02-23T10:44:52;8.00;99.90
46364;DHT22;32071;49.036;9.344;2024-02-23T10:47:19;8.10;99.90
46364;DHT22;32071;49.036;9.344;2024-02-23T10:49:46;8.20;99.90
46364;DHT22;32071;49.036;9.344;2024-02-23T10:52:12;8.10;99.90
46364;DHT22;32071;49.036;9.344;2024-02-23T10:54:40;8.20;99.90
46364;DHT22;32071;49.036;9.344;2024-02-23T10:57:06;8.20;99.90
46364;DHT22;32071;49.036;9.344;2024-02-23T10:59:32;8.20;99.90
46364;DHT22;32071;49.036;9.344;2024-02-23T11:02:00;8.20;99.90
46364;DHT22;32071;49.036;9.344;2024-02-23T11:04:27;8.20;99.90
46364;DHT22;32071;49.036;9.344;2024-02-23T11:06:55;8.20;99.90
46364;DHT22;32071;49.036;9.344;2024-02-23T11:09:23;8.20;99.90
46364;DHT22;32071;49.036;9.344;2024-02-23T11:11:58;8.20;99.90
46364;DHT22;32071;49.036;9.344;2024-02-23T11:14:35;8.30;99.90
46364;DHT22;32071;49.036;9.344;2024-02-23T11:17:01;8.20;99.90
46364;DHT22;32071;49.036;9.344;2024-02-23T11:19:39;8.20;99.90
46364;DHT22;32071;49.036;9.344;2024-02-23T11:22:09;8.30;99.90
46364;DHT22;32071;49.036;9.344;2024-02-23T11:24:41;8.30;99.90
46364;DHT22;32071;49.036;9.344;2024-02-23T11:27:13;8.40;99.90
46364;DHT22;32071;49.036;9.344;2024-02-23T11:29:41;8.60;99.90
46364;DHT22;32071;49.036;9.344;2024-02-23T11:32:15;8.80;99.90
46364;DHT22;32071;49.036;9.344;2024-02-23T11:34:41;8.80;99.90
46364;DHT22;32071;49.036;9.344;2024-02-23T11:37:09;8.90;99.90
46364;DHT22;32071;49.036;9.344;2024-02-23T11:39:37;8.90;99.90
46364;DHT22;32071;49.036;9.344;2024-02-23T11:42:05;8.70;99.90
46364;DHT22;32071;49.036;9.344;2024-02-23T11:44:31;8.70;99.90
46364;DHT22;32071;49.036;9.344;2024-02-23T11:46:58;8.60;99.90
46364;DHT22;32071;49.036;9.344;2024-02-23T11:49:30;8.50;99.90
46364;DHT22;32071;49.036;9.344;2024-02-23T11:51:56;8.60;99.90
46364;DHT22;32071;49.036;9.344;2024-02-23T11:54:22;8.70;99.90
46364;DHT22;32071;49.036;9.344;2024-02-23T11:56:48;8.80;99.90
46364;DHT22;32071;49.036;9.344;2024-02-23T11:59:15;8.90;99.90
46364;DHT22;32071;49.036;9.344;2024-02-23T12:01:41;8.90;99.90
46364;DHT22;32071;49.036;9.344;2024-02-23T12:04:07;8.90;99.90
46364;DHT22;32071;49.036;9.344;2024-02-23T12:06:33;9.10;99.90
46364;DHT22;32071;49.036;9.344;2024-02-23T12:08:59;9.20;99.90
46364;DHT22;32071;49.036;9.344;2024-02-23T12:11:25;9.40;99.90
46364;DHT22;32071;49.036;9.344;2024-02-23T12:13:51;9.40;99.90
46364;DHT22;32071;49.036;9.344;2024-02-23T12:16:16;9.20;99.90
46364;DHT22;32071;49.036;9.344;2024-02-23T12:18:42;9.30;99.90
46364;DHT22;32071;49.036;9.344;2024-02-23T12:21:08;9.30;99.90
46364;DHT22;32071;49.036;9.344;2024-02-23T12:23:44;9.40;99.90
46364;DHT22;32071;49.036;9.344;2024-02-23T12:26:12;9.40;99.90
46364;DHT22;32071;49.036;9.344;2024-02-23T12:28:39;9.50;99.90
46364;DHT22;32071;49.036;9.344;2024-02-23T12:31:05;9.50;99.90
46364;DHT22;32071;49.036;9.344;2024-02-23T12:33:35;9.30;99.90
46364;DHT22;32071;49.036;9.344;2024-02-23T12:36:02;9.20;99.90
46364;DHT22;32071;49.036;9.344;2024-02-23T12:38:28;9.20;99.90
46364;DHT22;32071;49.036;9.344;2024-02-23T12:40:55;9.20;99.90
46364;DHT22;32071;49.036;9.344;2024-02-23T12:43:20;9.20;99.90
46364;DHT22;32071;49.036;9.344;2024-02-23T12:45:47;9.20;99.90
46364;DHT22;32071;49.036;9.344;2024-02-23T12:48:16;9.00;99.90
46364;DHT22;32071;49.036;9.344;2024-02-23T12:50:42;8.70;99.90
46364;DHT22;32071;49.036;9.344;2024-02-23T12:55:56;8.60;99.90
46364;DHT22;32071;49.036;9.344;2024-02-23T12:58:21;8.80;99.90
46364;DHT22;32071;49.036;9.344;2024-02-23T13:00:47;8.80;99.90
46364;DHT22;32071;49.036;9.344;2024-02-23T13:03:12;8.80;99.90
46364;DHT22;32071;49.036;9.344;2024-02-23T13:05:38;8.90;99.90
46364;DHT22;32071;49.036;9.344;2024-02-23T13:08:04;8.90;99.90
46364;DHT22;32071;49.036;9.344;2024-02-23T13:10:29;9.00;99.90
46364;DHT22;32071;49.036;9.344;2024-02-23T13:12:55;9.00;99.90
46364;DHT22;32071;49.036;9.344;2024-02-23T13:15:20;9.10;99.90
46364;DHT22;32071;49.036;9.344;2024-02-23T13:17:46;9.10;99.90
46364;DHT22;32071;49.036;9.344;2024-02-23T13:20:11;9.00;99.90
46364;DHT22;32071;49.036;9.344;2024-02-23T13:22:38;9.00;99.90
46364;DHT22;32071;49.036;9.344;2024-02-23T13:25:05;9.10;99.90
46364;DHT22;32071;49.036;9.344;2024-02-23T13:27:31;9.20;99.90
46364;DHT22;32071;49.036;9.344;2024-02-23T13:29:57;9.20;99.90
46364;DHT22;32071;49.036;9.344;2024-02-23T13:32:22;9.30;99.90
46364;DHT22;32071;49.036;9.344;2024-02-23T13:34:48;9.30;99.90
46364;DHT22;32071;49.036;9.344;2024-02-23T13:37:17;9.20;99.90
46364;DHT22;32071;49.036;9.344;2024-02-23T13:39:43;9.20;99.90
46364;DHT22;32071;49.036;9.344;2024-02-23T13:42:09;9.20;99.90
46364;DHT22;32071;49.036;9.344;2024-02-23T13:44:35;9.00;99.90
46364;DHT22;32071;49.036;9.344;2024-02-23T13:47:01;9.00;99.90
46364;DHT22;32071;49.036;9.344;2024-02-23T13:49:27;9.00;99.90
46364;DHT22;32071;49.036;9.344;2024-02-23T13:51:52;9.10;99.90
46364;DHT22;32071;49.036;9.344;2024-02-23T13:54:18;9.20;99.90
46364;DHT22;32071;49.036;9.344;2024-02-23T13:56:43;9.40;99.90
46364;DHT22;32071;49.036;9.344;2024-02-23T13:59:09;9.60;99.90
46364;DHT22;32071;49.036;9.344;2024-02-23T14:01:35;9.60;99.90
46364;DHT22;32071;49.036;9.344;2024-02-23T14:04:06;9.70;99.90
46364;DHT22;32071;49.036;9.344;2024-02-23T14:06:31;9.70;99.90
46364;DHT22;32071;49.036;9.344;2024-02-23T14:08:57;9.70;99.90
46364;DHT22;32071;49.036;9.344;2024-02-23T14:11:23;9.70;99.90
46364;DHT22;32071;49.036;9.344;2024-02-23T14:13:48;9.60;99.90
46364;DHT22;32071;49.036;9.344;2024-02-23T14:16:14;9.70;99.90
46364;DHT22;32071;49.036;9.344;2024-02-23T14:18:39;9.70;99.90
46364;DHT22;32071;49.036;9.344;2024-02-23T14:21:08;9.50;99.90
46364;DHT22;32071;49.036;9.344;2024-02-23T14:23:35;9.50;99.90
46364;DHT22;32071;49.036;9.344;2024-02-23T14:26:01;9.30;99.90
46364;DHT22;32071;49.036;9.344;2024-02-23T14:28:27;9.10;99.90
46364;DHT22;32071;49.036;9.344;2024-02-23T14:30:53;9.10;99.90
46364;DHT22;32071;49.036;9.344;2024-02-23T14:33:19;9.20;99.90
46364;DHT22;32071;49.036;9.344;2024-02-23T14:35:45;9.20;99.90
46364;DHT22;32071;49.036;9.344;2024-02-23T14:38:11;9.20;99.90
46364;DHT22;32071;49.036;9.344;2024-02-23T14:40:36;9.20;99.90
46364;DHT22;32071;49.036;9.344;2024-02-23T14:43:03;9.10;99.90
46364;DHT22;32071;49.036;9.344;2024-02-23T14:45:28;9.20;99.90
46364;DHT22;32071;49.036;9.344;2024-02-23T14:47:54;9.30;99.90
46364;DHT22;32071;49.036;9.344;2024-02-23T14:50:20;9.30;99.90
46364;DHT22;32071;49.036;9.344;2024-02-23T14:52:45;9.20;99.90
46364;DHT22;32071;49.036;9.344;2024-02-23T14:55:11;9.20;99.90
46364;DHT22;32071;49.036;9.344;2024-02-23T14:57:37;9.20;99.90
46364;DHT22;32071;49.036;9.344;2024-02-23T15:00:04;9.10;99.90
46364;DHT22;32071;49.036;9.344;2024-02-23T15:02:30;9.00;99.90
46364;DHT22;32071;49.036;9.344;2024-02-23T15:04:55;8.90;99.90
46364;DHT22;32071;49.036;9.344;2024-02-23T15:07:21;8.80;99.90
46364;DHT22;32071;49.036;9.344;2024-02-23T15:09:46;8.90;99.90
46364;DHT22;32071;49.036;9.344;2024-02-23T15:12:12;8.90;99.90
46364;DHT22;32071;49.036;9.344;2024-02-23T15:14:39;9.00;99.90
46364;DHT22;32071;49.036;9.344;2024-02-23T15:17:04;9.10;99.90
46364;DHT22;32071;49.036;9.344;2024-02-23T15:19:30;9.30;99.90
46364;DHT22;32071;49.036;9.344;2024-02-23T15:21:56;9.30;99.90
46364;DHT22;32071;49.036;9.344;2024-02-23T15:24:22;9.20;99.90
46364;DHT22;32071;49.036;9.344;2024-02-23T15:26:50;9.10;99.90
46364;DHT22;32071;49.036;9.344;2024-02-23T15:29:16;9.10;99.90
46364;DHT22;32071;49.036;9.344;2024-02-23T15:31:41;9.00;99.90
46364;DHT22;32071;49.036;9.344;2024-02-23T15:34:08;9.00;99.90
46364;DHT22;32071;49.036;9.344;2024-02-23T15:36:34;8.90;99.90
46364;DHT22;32071;49.036;9.344;2024-02-23T15:38:59;8.90;99.90
46364;DHT22;32071;49.036;9.344;2024-02-23T15:41:34;8.80;99.90